createdAt,value
2022-09-23T00:01:44.289Z,6.93
2022-09-23T00:04:13.225Z,8.70
2022-09-23T00:06:44.279Z,8.45
2022-09-23T00:09:13.220Z,7.97
2022-09-23T00:11:41.761Z,8.18
2022-09-23T00:14:11.970Z,7.85
2022-09-23T00:16:40.652Z,8.82
2022-09-23T00:19:09.018Z,7.43
2022-09-23T00:21:37.684Z,7.32
2022-09-23T00:24:08.200Z,7.72
2022-09-23T00:26:36.857Z,8.60
2022-09-23T00:29:05.831Z,7.30
2022-09-23T00:31:34.630Z,9.82
2022-09-23T00:34:03.609Z,8.98
2022-09-23T00:36:33.538Z,10.15
2022-09-23T00:39:04.525Z,6.53
2022-09-23T00:41:35.620Z,7.57
2022-09-23T00:44:44.766Z,6.80
2022-09-23T00:47:19.599Z,7.55
2022-09-23T00:49:54.633Z,8.77
2022-09-23T00:52:25.277Z,8.95
2022-09-23T00:55:00.182Z,8.07
2022-09-23T00:57:31.446Z,6.60
2022-09-23T01:00:03.176Z,8.25
2022-09-23T01:02:35.179Z,7.72
2022-09-23T01:05:08.840Z,7.10
2022-09-23T01:07:40.262Z,7.97
2022-09-23T01:10:13.855Z,9.38
2022-09-23T01:13:08.402Z,8.18
2022-09-23T01:15:43.073Z,7.85
2022-09-23T01:18:28.897Z,8.23
2022-09-23T01:21:19.789Z,7.60
2022-09-23T01:24:32.208Z,8.07
2022-09-23T01:27:13.918Z,11.05
2022-09-23T01:30:11.289Z,8.23
2022-09-23T01:32:56.939Z,9.40
2022-09-23T01:35:31.061Z,7.63
2022-09-23T01:38:11.838Z,7.78
2022-09-23T01:40:50.502Z,9.32
2022-09-23T01:43:26.070Z,7.65
2022-09-23T01:46:00.006Z,7.85
2022-09-23T01:48:37.879Z,9.13
2022-09-23T01:51:34.493Z,8.40
2022-09-23T01:54:21.116Z,6.60
2022-09-23T01:56:55.319Z,8.30
2022-09-23T01:59:30.318Z,8.07
2022-09-23T02:02:05.840Z,8.88
2022-09-23T02:04:45.833Z,9.57
2022-09-23T02:07:21.936Z,12.65
2022-09-23T02:09:55.061Z,7.20
2022-09-23T02:12:25.833Z,7.68
2022-09-23T02:15:04.091Z,7.80
2022-09-23T02:17:40.966Z,6.70
2022-09-23T02:20:16.306Z,7.55
2022-09-23T02:22:52.904Z,12.70
2022-09-23T02:25:25.630Z,8.98
2022-09-23T02:28:01.121Z,7.43
2022-09-23T02:30:34.246Z,7.95
2022-09-23T02:33:08.016Z,8.50
2022-09-23T02:35:44.662Z,6.80
2022-09-23T02:38:22.745Z,7.05
2022-09-23T02:40:58.845Z,7.47
2022-09-23T02:43:35.725Z,7.47
2022-09-23T02:46:06.137Z,8.02
2022-09-23T02:48:40.904Z,9.23
2022-09-23T02:51:11.710Z,7.78
2022-09-23T02:53:41.665Z,6.78
2022-09-23T02:56:19.862Z,7.85
2022-09-23T02:58:49.730Z,8.60
2022-09-23T03:01:32.044Z,8.90
2022-09-23T03:04:14.908Z,7.13
2022-09-23T03:07:00.877Z,11.95
2022-09-23T03:09:34.898Z,8.30
2022-09-23T03:12:13.989Z,6.78
2022-09-23T03:14:52.002Z,8.45
2022-09-23T03:17:27.325Z,7.38
2022-09-23T03:20:02.652Z,7.38
2022-09-23T03:22:36.911Z,8.70
2022-09-23T03:25:10.800Z,6.15
2022-09-23T03:27:42.653Z,6.55
2022-09-23T03:32:44.158Z,6.68
2022-09-23T03:35:14.558Z,5.55
2022-09-23T03:37:52.142Z,5.93
2022-09-23T03:40:25.544Z,7.78
2022-09-23T03:42:57.392Z,6.57
2022-09-23T03:45:31.019Z,6.32
2022-09-23T03:47:59.858Z,5.72
2022-09-23T03:50:29.107Z,5.47
2022-09-23T03:52:59.626Z,6.05
2022-09-23T03:55:28.419Z,5.53
2022-09-23T03:57:57.320Z,5.95
2022-09-23T04:00:26.006Z,6.88
2022-09-23T04:02:55.082Z,7.82
2022-09-23T04:05:24.240Z,6.57
2022-09-23T04:07:53.311Z,6.78
2022-09-23T04:10:26.603Z,7.05
2022-09-23T04:12:56.246Z,6.95
2022-09-23T04:15:25.085Z,7.38
2022-09-23T04:17:55.569Z,8.27
2022-09-23T04:20:29.933Z,9.18
2022-09-23T04:23:04.237Z,8.15
2022-09-23T04:25:37.140Z,8.38
2022-09-23T04:28:13.077Z,9.90
2022-09-23T04:30:43.982Z,11.20
2022-09-23T04:33:13.708Z,10.27
2022-09-23T04:35:47.811Z,8.55
2022-09-23T04:38:18.860Z,8.45
2022-09-23T04:40:55.675Z,7.65
2022-09-23T04:43:24.841Z,8.98
2022-09-23T04:46:02.603Z,8.63
2022-09-23T04:48:31.935Z,8.82
2022-09-23T04:51:05.666Z,10.23
2022-09-23T04:53:34.964Z,9.18
2022-09-23T04:56:09.764Z,9.20
2022-09-23T04:58:41.043Z,12.73
2022-09-23T05:01:11.919Z,8.85
2022-09-23T05:03:41.655Z,11.50
2022-09-23T05:06:13.906Z,10.38
2022-09-23T05:08:43.215Z,9.63
2022-09-23T05:11:13.821Z,10.63
2022-09-23T05:13:42.901Z,9.98
2022-09-23T05:16:13.569Z,9.30
2022-09-23T05:18:44.739Z,10.38
2022-09-23T05:21:16.027Z,8.18
2022-09-23T05:23:54.595Z,9.52
2022-09-23T05:26:26.803Z,9.70
2022-09-23T05:28:58.980Z,10.25
2022-09-23T05:31:29.642Z,9.93
2022-09-23T05:34:01.076Z,12.45
2022-09-23T05:36:36.893Z,11.55
2022-09-23T05:39:07.818Z,11.63
2022-09-23T05:41:41.857Z,10.80
2022-09-23T05:44:18.526Z,10.45
2022-09-23T05:46:47.946Z,10.90
2022-09-23T05:49:17.183Z,10.57
2022-09-23T05:51:46.228Z,10.23
2022-09-23T05:54:18.151Z,10.25
2022-09-23T05:56:49.811Z,9.45
2022-09-23T05:59:22.988Z,11.45
2022-09-23T06:01:54.469Z,12.57
2022-09-23T06:04:27.367Z,9.98
2022-09-23T06:07:02.776Z,9.53
2022-09-23T06:09:36.564Z,9.88
2022-09-23T06:12:07.815Z,9.60
2022-09-23T06:14:37.362Z,10.30
2022-09-23T06:17:12.241Z,10.07
2022-09-23T06:19:41.697Z,9.70
2022-09-23T06:22:11.484Z,8.90
2022-09-23T06:24:40.374Z,8.63
2022-09-23T06:27:11.160Z,8.30
2022-09-23T06:29:40.482Z,9.38
2022-09-23T06:32:10.696Z,9.13
2022-09-23T06:34:51.275Z,9.65
2022-09-23T06:37:23.787Z,8.52
2022-09-23T06:39:55.767Z,9.23
2022-09-23T06:42:27.023Z,10.73
2022-09-23T06:44:55.875Z,9.47
2022-09-23T06:47:25.637Z,7.90
2022-09-23T06:49:55.724Z,9.23
2022-09-23T06:52:25.446Z,9.85
2022-09-23T06:54:54.698Z,8.23
2022-09-23T06:57:24.708Z,9.98
2022-09-23T06:59:55.535Z,8.15
2022-09-23T07:02:24.729Z,8.48
2022-09-23T07:04:53.815Z,8.27
2022-09-23T07:07:26.822Z,8.00
2022-09-23T07:09:56.097Z,8.48
2022-09-23T07:12:25.057Z,7.43
2022-09-23T07:14:55.489Z,8.48
2022-09-23T07:17:24.698Z,8.25
2022-09-23T07:19:55.406Z,7.50
2022-09-23T07:22:25.049Z,7.70
2022-09-23T07:24:56.380Z,7.80
2022-09-23T07:27:26.445Z,6.97
2022-09-23T07:30:12.983Z,8.02
2022-09-23T07:32:50.640Z,8.60
2022-09-23T07:36:08.602Z,8.77
2022-09-23T07:38:42.852Z,7.40
2022-09-23T07:41:16.356Z,7.65
2022-09-23T07:43:55.825Z,6.00
2022-09-23T07:46:27.826Z,6.95
2022-09-23T07:48:59.503Z,5.60
2022-09-23T07:51:35.418Z,4.35
2022-09-23T07:54:10.226Z,6.40
2022-09-23T07:56:43.914Z,3.85
2022-09-23T07:59:15.625Z,4.85
2022-09-23T08:01:48.564Z,4.78
2022-09-23T08:04:20.074Z,3.63
2022-09-23T08:06:50.742Z,5.43
2022-09-23T08:09:21.497Z,4.10
2022-09-23T08:11:52.306Z,3.90
2022-09-23T08:14:24.043Z,2.05
2022-09-23T08:16:56.179Z,2.83
2022-09-23T08:19:25.652Z,1.67
2022-09-23T08:21:54.746Z,1.38
2022-09-23T08:24:26.235Z,2.85
2022-09-23T08:26:58.261Z,2.47
2022-09-23T08:29:30.011Z,1.75
2022-09-23T08:32:01.284Z,3.17
2022-09-23T08:34:30.360Z,2.05
2022-09-23T08:36:59.687Z,2.30
2022-09-23T08:39:28.749Z,2.45
2022-09-23T08:42:11.882Z,3.22
2022-09-23T08:44:48.471Z,7.63
2022-09-23T08:47:24.948Z,1.23
2022-09-23T08:50:01.281Z,2.70
2022-09-23T08:52:50.758Z,3.25
2022-09-23T08:55:23.497Z,2.70
2022-09-23T08:58:24.528Z,2.03
2022-09-23T09:03:36.953Z,1.25
2022-09-23T09:06:06.196Z,1.92
2022-09-23T09:08:38.857Z,2.55
2022-09-23T09:11:10.972Z,1.20
2022-09-23T09:13:49.156Z,1.52
2022-09-23T09:16:58.314Z,1.55
2022-09-23T09:19:44.192Z,1.10
2022-09-23T09:25:22.185Z,1.05
2022-09-23T09:27:54.763Z,0.47
2022-09-23T09:30:30.025Z,0.98
2022-09-23T09:33:04.515Z,2.92
2022-09-23T09:35:40.111Z,4.45
2022-09-23T09:38:09.220Z,0.43
2022-09-23T09:40:46.744Z,2.95
2022-09-23T09:43:23.782Z,1.77
2022-09-23T09:46:06.853Z,0.70
2022-09-23T09:48:41.100Z,1.02
2022-09-23T09:51:21.881Z,2.35
2022-09-23T09:53:52.824Z,0.38
2022-09-23T09:56:31.489Z,0.73
2022-09-23T09:59:11.087Z,1.57
2022-09-23T10:01:40.049Z,0.90
2022-09-23T10:04:23.192Z,5.15
2022-09-23T10:07:13.199Z,2.90
2022-09-23T10:09:50.795Z,0.68
2022-09-23T10:12:24.714Z,0.60
2022-09-23T10:14:58.070Z,0.80
2022-09-23T10:17:35.583Z,0.80
2022-09-23T10:20:09.620Z,0.50
2022-09-23T10:22:42.826Z,0.47
2022-09-23T10:25:18.437Z,1.50
2022-09-23T10:27:50.341Z,0.75
2022-09-23T10:30:24.200Z,2.50
2022-09-23T10:32:57.185Z,1.17
2022-09-23T10:35:28.520Z,2.42
2022-09-23T10:38:01.073Z,3.22
2022-09-23T10:40:51.020Z,2.60
2022-09-23T10:43:57.339Z,0.32
2022-09-23T10:46:42.812Z,1.08
2022-09-23T10:49:54.009Z,1.17
2022-09-23T10:52:42.363Z,0.28
2022-09-23T10:55:29.107Z,2.13
2022-09-23T10:58:17.795Z,0.93
2022-09-23T11:00:54.035Z,1.08
2022-09-23T11:04:04.334Z,0.85
2022-09-23T11:06:43.361Z,0.93
2022-09-23T11:09:35.244Z,1.50
2022-09-23T11:12:35.818Z,0.90
2022-09-23T11:15:46.108Z,0.52
2022-09-23T11:19:00.529Z,1.95
2022-09-23T11:21:48.491Z,0.90
2022-09-23T11:28:41.635Z,0.70
2022-09-23T11:31:47.770Z,1.40
2022-09-23T11:34:49.861Z,1.00
2022-09-23T11:37:49.479Z,0.93
2022-09-23T11:40:43.930Z,0.85
2022-09-23T11:43:23.796Z,0.50
2022-09-23T11:46:00.544Z,3.63
2022-09-23T11:48:38.225Z,1.65
2022-09-23T11:51:14.044Z,1.92
2022-09-23T11:53:49.283Z,0.85
2022-09-23T11:56:33.816Z,0.82
2022-09-23T11:59:11.796Z,2.28
2022-09-23T12:01:46.979Z,5.78
2022-09-23T12:04:25.758Z,1.00
2022-09-23T12:07:02.099Z,0.47
2022-09-23T12:09:57.325Z,0.80
2022-09-23T12:12:35.679Z,3.78
2022-09-23T12:15:08.164Z,2.58
2022-09-23T12:17:51.284Z,1.33
2022-09-23T12:20:43.074Z,0.50
2022-09-23T12:23:28.924Z,1.50
2022-09-23T12:26:02.156Z,1.83
2022-09-23T12:28:38.047Z,0.52
2022-09-23T12:31:12.379Z,1.55
2022-09-23T12:33:49.979Z,1.10
2022-09-23T12:36:28.017Z,1.00
2022-09-23T12:39:03.413Z,0.68
2022-09-23T12:41:37.380Z,0.45
2022-09-23T12:44:37.224Z,1.83
2022-09-23T12:47:34.755Z,0.98
2022-09-23T12:50:03.676Z,0.73
2022-09-23T12:52:38.746Z,0.82
2022-09-23T12:55:53.193Z,1.02
2022-09-23T12:58:39.670Z,2.10
2022-09-23T13:01:20.683Z,3.28
2022-09-23T13:04:10.491Z,1.70
2022-09-23T13:06:42.642Z,5.53
2022-09-23T13:11:48.252Z,1.48
2022-09-23T13:14:26.683Z,3.60
2022-09-23T13:16:59.348Z,10.23
2022-09-23T13:19:47.063Z,1.35
2022-09-23T13:22:15.996Z,1.27
2022-09-23T13:24:57.264Z,1.30
2022-09-23T13:27:32.459Z,0.88
2022-09-23T13:30:08.002Z,1.88
2022-09-23T13:32:48.131Z,0.50
2022-09-23T13:35:29.908Z,1.95
2022-09-23T13:38:03.657Z,1.10
2022-09-23T13:40:38.711Z,1.08
2022-09-23T13:43:13.205Z,0.60
2022-09-23T13:45:44.397Z,2.63
2022-09-23T13:48:15.363Z,1.00
2022-09-23T13:50:48.893Z,1.85
2022-09-23T13:53:24.882Z,1.92
2022-09-23T13:56:04.050Z,2.17
2022-09-23T13:58:37.815Z,1.90
2022-09-23T14:01:10.464Z,2.33
2022-09-23T14:03:43.507Z,1.02
2022-09-23T14:06:17.592Z,4.45
2022-09-23T14:08:50.844Z,2.55
2022-09-23T14:11:25.359Z,2.45
2022-09-23T14:14:08.089Z,1.75
2022-09-23T14:16:39.840Z,1.70
2022-09-23T14:19:09.211Z,2.42
2022-09-23T14:21:39.942Z,2.08
2022-09-23T14:24:17.508Z,2.40
2022-09-23T14:26:51.911Z,2.50
2022-09-23T14:29:24.275Z,2.80
2022-09-23T14:31:58.531Z,1.98
2022-09-23T14:34:44.978Z,1.00
2022-09-23T14:37:42.883Z,1.55
2022-09-23T14:40:17.287Z,2.70
2022-09-23T14:42:55.112Z,5.68
2022-09-23T14:45:29.059Z,2.60
2022-09-23T14:48:01.593Z,1.75
2022-09-23T14:50:47.544Z,1.98
2022-09-23T14:53:39.343Z,2.40
2022-09-23T14:56:18.104Z,1.80
2022-09-23T14:58:56.667Z,1.50
2022-09-23T15:01:36.290Z,4.25
2022-09-23T15:04:16.015Z,6.15
2022-09-23T15:06:51.675Z,1.25
2022-09-23T15:09:26.388Z,4.60
2022-09-23T15:12:00.583Z,5.30
2022-09-23T15:14:40.705Z,5.28
2022-09-23T15:17:35.099Z,9.35
2022-09-23T15:20:06.803Z,5.05
2022-09-23T15:22:44.846Z,4.07
2022-09-23T15:25:19.238Z,2.85
2022-09-23T15:28:05.991Z,2.17
2022-09-23T15:30:39.254Z,1.85
2022-09-23T15:33:09.195Z,5.32
2022-09-23T15:35:40.812Z,1.55
2022-09-23T15:38:11.511Z,2.13
2022-09-23T15:40:41.689Z,4.28
2022-09-23T15:43:20.554Z,6.13
2022-09-23T15:45:53.962Z,5.50
2022-09-23T15:48:25.471Z,8.85
2022-09-23T15:50:59.853Z,8.57
2022-09-23T15:53:30.115Z,5.47
2022-09-23T15:55:59.339Z,5.65
2022-09-23T15:58:28.540Z,8.63
2022-09-23T16:01:05.193Z,8.52
2022-09-23T16:03:36.398Z,10.30
2022-09-23T16:06:06.465Z,10.90
2022-09-23T16:08:35.870Z,6.22
2022-09-23T16:11:08.632Z,5.07
2022-09-23T16:13:39.637Z,5.40
2022-09-23T16:16:11.050Z,4.28
2022-09-23T16:18:44.069Z,4.93
2022-09-23T16:21:18.360Z,5.50
2022-09-23T16:23:50.327Z,6.75
2022-09-23T16:26:21.693Z,3.67
2022-09-23T16:28:52.830Z,8.38
2022-09-23T16:31:25.761Z,25.70
2022-09-23T16:33:55.549Z,6.38
2022-09-23T16:36:27.182Z,4.93
2022-09-23T16:38:57.529Z,7.28
2022-09-23T16:41:29.071Z,4.90
2022-09-23T16:43:58.155Z,2.97
2022-09-23T16:46:30.128Z,3.80
2022-09-23T16:49:00.738Z,3.80
2022-09-23T16:51:34.441Z,3.28
2022-09-23T16:54:03.808Z,3.20
2022-09-23T16:56:33.690Z,4.40
2022-09-23T16:59:03.078Z,2.63
2022-09-23T17:01:51.450Z,3.33
2022-09-23T17:04:22.354Z,3.88
2022-09-23T17:06:54.524Z,4.13
2022-09-23T17:09:28.074Z,9.23
2022-09-23T17:12:10.318Z,4.50
2022-09-23T17:14:38.970Z,4.95
2022-09-23T17:17:11.230Z,5.70
2022-09-23T17:19:41.661Z,4.18
2022-09-23T17:22:12.715Z,3.85
2022-09-23T17:24:41.403Z,4.35
2022-09-23T17:27:11.877Z,8.77
2022-09-23T17:29:42.275Z,10.13
2022-09-23T17:32:12.410Z,8.30
2022-09-23T17:34:41.570Z,7.85
2022-09-23T17:37:11.119Z,7.80
2022-09-23T17:39:43.211Z,7.10
2022-09-23T17:44:42.424Z,9.50
2022-09-23T17:47:13.450Z,11.50
2022-09-23T17:49:43.539Z,9.05
2022-09-23T17:52:12.939Z,9.40
2022-09-23T17:54:42.433Z,8.77
2022-09-23T17:57:13.236Z,7.10
2022-09-23T17:59:43.071Z,6.78
2022-09-23T18:02:15.789Z,7.60
2022-09-23T18:04:44.772Z,6.68
2022-09-23T18:07:14.049Z,7.95
2022-09-23T18:09:42.741Z,8.93
2022-09-23T18:12:12.071Z,7.22
2022-09-23T18:14:42.626Z,8.50
2022-09-23T18:17:15.167Z,7.72
2022-09-23T18:19:45.101Z,10.35
2022-09-23T18:22:13.815Z,9.85
2022-09-23T18:24:43.043Z,10.43
2022-09-23T18:27:12.482Z,12.43
2022-09-23T18:29:41.393Z,13.48
2022-09-23T18:32:13.965Z,17.60
2022-09-23T18:34:44.941Z,15.27
2022-09-23T18:37:16.059Z,14.15
2022-09-23T18:39:46.277Z,13.23
2022-09-23T18:42:18.574Z,15.90
2022-09-23T18:44:50.164Z,12.02
2022-09-23T18:47:33.200Z,11.77
2022-09-23T18:50:21.641Z,15.07
2022-09-23T18:52:53.626Z,15.55
2022-09-23T18:55:22.658Z,14.20
2022-09-23T18:57:54.960Z,15.10
2022-09-23T19:00:27.697Z,15.52
2022-09-23T19:02:56.991Z,14.98
2022-09-23T19:05:27.507Z,17.33
2022-09-23T19:07:56.498Z,13.50
2022-09-23T19:10:25.197Z,16.48
2022-09-23T19:12:54.195Z,19.67
2022-09-23T19:15:23.472Z,22.33
2022-09-23T19:17:53.455Z,26.48
2022-09-23T19:20:25.149Z,28.30
2022-09-23T19:22:56.814Z,30.25
2022-09-23T19:25:28.641Z,30.30
2022-09-23T19:27:59.576Z,24.13
2022-09-23T19:30:28.513Z,29.88
2022-09-23T19:32:57.388Z,23.83
2022-09-23T19:35:26.309Z,23.80
2022-09-23T19:37:59.852Z,24.52
2022-09-23T19:40:29.916Z,24.05
2022-09-23T19:42:59.328Z,21.35
2022-09-23T19:45:30.269Z,25.27
2022-09-23T19:47:59.181Z,24.80
2022-09-23T19:50:27.818Z,25.27
2022-09-23T19:52:59.706Z,26.42
2022-09-23T19:57:59.850Z,56.00
2022-09-23T20:00:29.298Z,60.60
2022-09-23T20:02:58.856Z,57.72
2022-09-23T20:05:29.206Z,47.92
2022-09-23T20:08:00.506Z,38.70
2022-09-23T20:10:29.663Z,43.22
2022-09-23T20:12:59.626Z,40.50
2022-09-23T20:15:29.413Z,33.90
2022-09-23T20:17:58.471Z,30.85
2022-09-23T20:20:27.931Z,28.10
2022-09-23T20:22:58.580Z,22.88
2022-09-23T20:25:27.519Z,19.92
2022-09-23T20:27:55.301Z,26.52
2022-09-23T20:30:24.400Z,24.70
2022-09-23T20:32:53.632Z,25.20
2022-09-23T20:35:22.565Z,30.02
2022-09-23T20:37:52.263Z,25.50
2022-09-23T20:40:23.325Z,28.48
2022-09-23T20:45:22.051Z,21.83
2022-09-23T20:47:50.679Z,19.33
2022-09-23T20:50:30.716Z,20.40
2022-09-23T20:52:59.735Z,24.08
2022-09-23T20:55:30.530Z,22.85
2022-09-23T20:58:01.588Z,24.90
2022-09-23T21:00:30.778Z,24.17
2022-09-23T21:03:00.294Z,27.77
2022-09-23T21:05:29.113Z,33.08
2022-09-23T21:08:02.634Z,33.97
2022-09-23T21:10:33.789Z,31.23
2022-09-23T21:13:04.421Z,36.25
2022-09-23T21:15:36.350Z,42.08
2022-09-23T21:18:05.407Z,30.23
2022-09-23T21:20:34.233Z,30.55
2022-09-23T21:23:03.302Z,30.00
2022-09-23T21:25:36.701Z,27.73
2022-09-23T21:28:05.709Z,26.65
2022-09-23T21:30:35.271Z,30.58
2022-09-23T21:33:04.297Z,31.48
2022-09-23T21:35:34.214Z,28.85
2022-09-23T21:38:02.820Z,36.05
2022-09-23T21:40:49.259Z,33.63
2022-09-23T21:43:20.067Z,34.30
2022-09-23T21:45:49.580Z,28.95
2022-09-23T21:48:18.311Z,29.25
2022-09-23T21:50:55.667Z,27.52
2022-09-23T21:53:25.170Z,25.45
2022-09-23T21:55:53.975Z,19.77
2022-09-23T21:58:24.299Z,19.05
2022-09-23T22:00:52.806Z,20.98
2022-09-23T22:03:22.100Z,21.25
2022-09-23T22:06:04.991Z,21.60
2022-09-23T22:08:37.281Z,20.50
2022-09-23T22:11:08.167Z,19.02
2022-09-23T22:13:38.434Z,16.30
2022-09-23T22:16:07.532Z,16.38
2022-09-23T22:18:36.617Z,20.50
2022-09-23T22:21:07.006Z,20.27
2022-09-23T22:23:36.490Z,20.50
2022-09-23T22:26:06.525Z,19.55
2022-09-23T22:28:52.808Z,20.92
2022-09-23T22:31:40.760Z,22.65
2022-09-23T22:34:25.481Z,19.65
2022-09-23T22:37:02.158Z,19.55
2022-09-23T22:39:31.896Z,25.65
2022-09-23T22:42:00.892Z,24.50
2022-09-23T22:44:30.214Z,24.73
2022-09-23T22:47:01.362Z,23.70
2022-09-23T22:49:32.512Z,20.25
2022-09-23T22:52:05.993Z,23.60
2022-09-23T22:54:35.050Z,22.35
2022-09-23T22:57:08.551Z,29.17
2022-09-23T22:59:38.262Z,21.60
2022-09-23T23:02:08.561Z,21.70
2022-09-23T23:04:37.706Z,22.00
2022-09-23T23:07:07.240Z,22.45
2022-09-23T23:09:36.351Z,22.05
2022-09-23T23:12:05.849Z,22.92
2022-09-23T23:14:35.201Z,21.25
2022-09-23T23:17:08.508Z,20.75
2022-09-23T23:19:38.023Z,25.30
2022-09-23T23:22:07.219Z,22.60
2022-09-23T23:24:36.187Z,22.90
2022-09-23T23:27:05.045Z,20.48
2022-09-23T23:29:33.481Z,20.08
2022-09-23T23:32:02.475Z,22.05
2022-09-23T23:34:32.503Z,25.10
2022-09-23T23:37:01.583Z,24.75
2022-09-23T23:39:30.416Z,19.88
2022-09-23T23:41:59.980Z,23.50
2022-09-23T23:44:31.238Z,28.85
2022-09-23T23:47:00.364Z,21.63
2022-09-23T23:49:30.048Z,24.73
2022-09-23T23:51:59.967Z,19.38
2022-09-23T23:54:28.576Z,28.08
2022-09-23T23:56:57.155Z,29.35
2022-09-23T23:59:26.158Z,29.98
